CheckWX is a tool to help pilots better visualize weather data.  It is not intended as a substitute for an official pre-flight weather briefing.

00:34:07 UTC

KJRB METAR
Downtown Manhattan / Wall St Heliport
New York, New York, USA
Current

38 mins ago

KJRB 162356Z AUTO 05012KT CLR 04/M12 A3046 RMK AO2 SLP315 T00441117 10078 20044 53007 PWINO
Observed
Nov-16 @ 23:56 UTC
Wind
  • 050° at 12 KTS
Visibility
Cloud Levels
  • Clear skies
Temperature
C / 39°F
Dewpoint
-12°C / 10°F
Humidity
30%
Altimeter
30.46" Hg
Pressure
1031.52 hPa
Previous

2 hours ago

KJRB 162256Z AUTO 04011KT CLR 04/M14 A3045 RMK AO2 SLP310 T00441139 PWINO
Observed
Nov-16 @ 22:56 UTC
Wind
  • 040° at 11 KTS
Visibility
Cloud Levels
  • Clear skies
Temperature
C / 39°F
Dewpoint
-14°C / 7°F
Humidity
26%
Altimeter
30.45" Hg
Pressure
1031.12 hPa
Previous

3 hours ago

KJRB 162156Z AUTO 05015G20KT CLR 05/M10 A3044 RMK AO2 SLP308 T00501100 PWINO
Observed
Nov-16 @ 21:56 UTC
Wind
  • 050° at 15 KTS
  • Gusting to 20 KTS
Visibility
Cloud Levels
  • Clear skies
Temperature
C / 41°F
Dewpoint
-10°C / 14°F
Humidity
33%
Altimeter
30.44" Hg
Pressure
1030.82 hPa